sensor_id;sensor_type;location;lat;lon;timestamp;temperature;humidity
46898;DHT22;32646;50.958;6.258;2023-03-05T00:00:26;4.60;99.90
46898;DHT22;32646;50.958;6.258;2023-03-05T00:02:52;4.70;99.90
46898;DHT22;32646;50.958;6.258;2023-03-05T00:05:19;4.50;99.90
46898;DHT22;32646;50.958;6.258;2023-03-05T00:07:45;4.50;99.90
46898;DHT22;32646;50.958;6.258;2023-03-05T00:10:12;4.50;99.90
46898;DHT22;32646;50.958;6.258;2023-03-05T00:12:39;4.60;99.90
46898;DHT22;32646;50.958;6.258;2023-03-05T00:15:06;4.40;99.90
46898;DHT22;32646;50.958;6.258;2023-03-05T00:17:32;4.40;99.90
46898;DHT22;32646;50.958;6.258;2023-03-05T00:19:59;4.40;99.90
46898;DHT22;32646;50.958;6.258;2023-03-05T00:22:28;4.40;99.90
46898;DHT22;32646;50.958;6.258;2023-03-05T00:24:54;4.40;99.90
46898;DHT22;32646;50.958;6.258;2023-03-05T00:27:21;4.30;99.90
46898;DHT22;32646;50.958;6.258;2023-03-05T00:29:47;4.30;99.90
46898;DHT22;32646;50.958;6.258;2023-03-05T00:32:14;4.20;99.90
46898;DHT22;32646;50.958;6.258;2023-03-05T00:34:41;4.20;99.90
46898;DHT22;32646;50.958;6.258;2023-03-05T00:37:07;4.10;99.90
46898;DHT22;32646;50.958;6.258;2023-03-05T00:39:34;4.10;99.90
46898;DHT22;32646;50.958;6.258;2023-03-05T00:42:01;4.10;99.90
46898;DHT22;32646;50.958;6.258;2023-03-05T00:44:27;4.10;99.90
46898;DHT22;32646;50.958;6.258;2023-03-05T00:46:55;4.20;99.90
46898;DHT22;32646;50.958;6.258;2023-03-05T00:49:21;4.10;99.90
46898;DHT22;32646;50.958;6.258;2023-03-05T00:51:48;4.10;99.90
46898;DHT22;32646;50.958;6.258;2023-03-05T00:54:14;4.00;99.90
46898;DHT22;32646;50.958;6.258;2023-03-05T00:56:41;4.00;99.90
46898;DHT22;32646;50.958;6.258;2023-03-05T00:59:08;4.00;99.90
46898;DHT22;32646;50.958;6.258;2023-03-05T01:01:34;3.90;99.90
46898;DHT22;32646;50.958;6.258;2023-03-05T01:04:01;3.90;99.90
46898;DHT22;32646;50.958;6.258;2023-03-05T01:06:28;3.90;99.90
46898;DHT22;32646;50.958;6.258;2023-03-05T01:08:55;3.90;99.90
46898;DHT22;32646;50.958;6.258;2023-03-05T01:11:21;3.90;99.90
46898;DHT22;32646;50.958;6.258;2023-03-05T01:13:48;3.90;99.90
46898;DHT22;32646;50.958;6.258;2023-03-05T01:16:15;3.80;99.90
46898;DHT22;32646;50.958;6.258;2023-03-05T01:18:41;3.90;99.90
46898;DHT22;32646;50.958;6.258;2023-03-05T01:21:08;3.80;99.90
46898;DHT22;32646;50.958;6.258;2023-03-05T01:23:35;3.90;99.90
46898;DHT22;32646;50.958;6.258;2023-03-05T01:26:01;3.90;99.90
46898;DHT22;32646;50.958;6.258;2023-03-05T01:28:28;3.80;99.90
46898;DHT22;32646;50.958;6.258;2023-03-05T01:30:55;3.70;99.90
46898;DHT22;32646;50.958;6.258;2023-03-05T01:33:21;3.60;99.90
46898;DHT22;32646;50.958;6.258;2023-03-05T01:35:49;3.60;99.90
46898;DHT22;32646;50.958;6.258;2023-03-05T01:38:16;3.60;99.90
46898;DHT22;32646;50.958;6.258;2023-03-05T01:40:43;3.60;99.90
46898;DHT22;32646;50.958;6.258;2023-03-05T01:45:36;3.80;99.90
46898;DHT22;32646;50.958;6.258;2023-03-05T01:48:04;3.60;99.90
46898;DHT22;32646;50.958;6.258;2023-03-05T01:50:32;3.70;99.90
46898;DHT22;32646;50.958;6.258;2023-03-05T01:53:01;3.60;99.90
46898;DHT22;32646;50.958;6.258;2023-03-05T01:55:31;3.70;99.90
46898;DHT22;32646;50.958;6.258;2023-03-05T01:58:00;3.70;99.90
46898;DHT22;32646;50.958;6.258;2023-03-05T02:00:31;3.70;99.90
46898;DHT22;32646;50.958;6.258;2023-03-05T02:03:04;3.60;99.90
46898;DHT22;32646;50.958;6.258;2023-03-05T02:05:33;3.60;99.90
46898;DHT22;32646;50.958;6.258;2023-03-05T02:08:02;3.60;99.90
46898;DHT22;32646;50.958;6.258;2023-03-05T02:10:33;3.60;99.90
46898;DHT22;32646;50.958;6.258;2023-03-05T02:13:06;3.50;99.90
46898;DHT22;32646;50.958;6.258;2023-03-05T02:15:34;3.50;99.90
46898;DHT22;32646;50.958;6.258;2023-03-05T02:18:01;3.50;99.90
46898;DHT22;32646;50.958;6.258;2023-03-05T02:20:30;3.60;99.90
46898;DHT22;32646;50.958;6.258;2023-03-05T02:22:57;3.60;99.90
46898;DHT22;32646;50.958;6.258;2023-03-05T02:25:28;3.60;99.90
46898;DHT22;32646;50.958;6.258;2023-03-05T02:28:00;3.60;99.90
46898;DHT22;32646;50.958;6.258;2023-03-05T02:30:28;3.60;99.90
46898;DHT22;32646;50.958;6.258;2023-03-05T02:32:55;3.50;99.90
46898;DHT22;32646;50.958;6.258;2023-03-05T02:35:22;3.50;99.90
46898;DHT22;32646;50.958;6.258;2023-03-05T02:37:50;3.40;99.90
46898;DHT22;32646;50.958;6.258;2023-03-05T02:40:17;3.30;99.90
46898;DHT22;32646;50.958;6.258;2023-03-05T02:42:44;3.30;99.90
46898;DHT22;32646;50.958;6.258;2023-03-05T02:45:11;3.40;99.90
46898;DHT22;32646;50.958;6.258;2023-03-05T02:47:38;3.40;99.90
46898;DHT22;32646;50.958;6.258;2023-03-05T02:50:06;3.40;99.90
46898;DHT22;32646;50.958;6.258;2023-03-05T02:52:32;3.40;99.90
46898;DHT22;32646;50.958;6.258;2023-03-05T02:55:00;3.40;99.90
46898;DHT22;32646;50.958;6.258;2023-03-05T02:57:27;3.30;99.90
46898;DHT22;32646;50.958;6.258;2023-03-05T02:59:53;3.30;99.90
46898;DHT22;32646;50.958;6.258;2023-03-05T03:02:20;3.30;99.90
46898;DHT22;32646;50.958;6.258;2023-03-05T03:04:47;3.30;99.90
46898;DHT22;32646;50.958;6.258;2023-03-05T03:07:13;3.30;99.90
46898;DHT22;32646;50.958;6.258;2023-03-05T03:09:41;3.40;99.90
46898;DHT22;32646;50.958;6.258;2023-03-05T03:12:10;3.40;99.90
46898;DHT22;32646;50.958;6.258;2023-03-05T03:14:38;3.30;99.90
46898;DHT22;32646;50.958;6.258;2023-03-05T03:17:11;3.40;99.90
46898;DHT22;32646;50.958;6.258;2023-03-05T03:19:38;3.40;99.90
46898;DHT22;32646;50.958;6.258;2023-03-05T03:22:06;3.40;99.90
46898;DHT22;32646;50.958;6.258;2023-03-05T03:24:34;3.40;99.90
46898;DHT22;32646;50.958;6.258;2023-03-05T03:27:00;3.40;99.90
46898;DHT22;32646;50.958;6.258;2023-03-05T03:29:27;3.30;99.90
46898;DHT22;32646;50.958;6.258;2023-03-05T03:31:54;3.40;99.90
46898;DHT22;32646;50.958;6.258;2023-03-05T03:34:21;3.30;99.90
46898;DHT22;32646;50.958;6.258;2023-03-05T03:36:49;3.30;99.90
46898;DHT22;32646;50.958;6.258;2023-03-05T03:39:16;3.30;99.90
46898;DHT22;32646;50.958;6.258;2023-03-05T03:41:44;3.40;99.90
46898;DHT22;32646;50.958;6.258;2023-03-05T03:44:11;3.30;99.90
46898;DHT22;32646;50.958;6.258;2023-03-05T03:46:39;3.30;99.90
46898;DHT22;32646;50.958;6.258;2023-03-05T03:49:06;3.30;99.90
46898;DHT22;32646;50.958;6.258;2023-03-05T03:51:33;3.30;99.90
46898;DHT22;32646;50.958;6.258;2023-03-05T03:54:00;3.30;99.90
46898;DHT22;32646;50.958;6.258;2023-03-05T03:56:26;3.40;99.90
46898;DHT22;32646;50.958;6.258;2023-03-05T03:58:53;3.30;99.90
46898;DHT22;32646;50.958;6.258;2023-03-05T04:01:20;3.30;99.90
46898;DHT22;32646;50.958;6.258;2023-03-05T04:03:47;3.20;99.90
46898;DHT22;32646;50.958;6.258;2023-03-05T04:06:14;3.20;99.90
46898;DHT22;32646;50.958;6.258;2023-03-05T04:08:40;3.20;99.90
46898;DHT22;32646;50.958;6.258;2023-03-05T04:11:07;3.30;99.90
46898;DHT22;32646;50.958;6.258;2023-03-05T04:13:34;3.30;99.90
46898;DHT22;32646;50.958;6.258;2023-03-05T04:16:00;3.30;99.90
46898;DHT22;32646;50.958;6.258;2023-03-05T04:18:27;3.30;99.90
46898;DHT22;32646;50.958;6.258;2023-03-05T04:20:55;3.30;99.90
46898;DHT22;32646;50.958;6.258;2023-03-05T04:23:22;3.30;99.90
46898;DHT22;32646;50.958;6.258;2023-03-05T04:25:48;3.30;99.90
46898;DHT22;32646;50.958;6.258;2023-03-05T04:28:15;3.30;99.90
46898;DHT22;32646;50.958;6.258;2023-03-05T04:30:42;3.30;99.90
46898;DHT22;32646;50.958;6.258;2023-03-05T04:33:08;3.30;99.90
46898;DHT22;32646;50.958;6.258;2023-03-05T04:35:35;3.20;99.90
46898;DHT22;32646;50.958;6.258;2023-03-05T04:38:01;3.30;99.90
46898;DHT22;32646;50.958;6.258;2023-03-05T04:40:28;3.30;99.90
46898;DHT22;32646;50.958;6.258;2023-03-05T04:42:55;3.20;99.90
46898;DHT22;32646;50.958;6.258;2023-03-05T04:45:21;3.20;99.90
46898;DHT22;32646;50.958;6.258;2023-03-05T04:47:48;3.20;99.90
46898;DHT22;32646;50.958;6.258;2023-03-05T04:50:14;3.20;99.90
46898;DHT22;32646;50.958;6.258;2023-03-05T04:52:43;3.20;99.90
46898;DHT22;32646;50.958;6.258;2023-03-05T04:55:11;3.20;99.90
46898;DHT22;32646;50.958;6.258;2023-03-05T04:57:38;3.10;99.90
46898;DHT22;32646;50.958;6.258;2023-03-05T05:00:07;3.20;99.90
46898;DHT22;32646;50.958;6.258;2023-03-05T05:02:34;3.20;99.90
46898;DHT22;32646;50.958;6.258;2023-03-05T05:05:00;3.20;99.90
46898;DHT22;32646;50.958;6.258;2023-03-05T05:07:27;3.20;99.90
46898;DHT22;32646;50.958;6.258;2023-03-05T05:09:53;3.20;99.90
46898;DHT22;32646;50.958;6.258;2023-03-05T05:12:20;3.10;99.90
46898;DHT22;32646;50.958;6.258;2023-03-05T05:14:46;3.10;99.90
46898;DHT22;32646;50.958;6.258;2023-03-05T05:17:13;3.10;99.90
46898;DHT22;32646;50.958;6.258;2023-03-05T05:19:39;3.10;99.90
46898;DHT22;32646;50.958;6.258;2023-03-05T05:22:06;3.10;99.90
46898;DHT22;32646;50.958;6.258;2023-03-05T05:24:32;3.10;99.90
46898;DHT22;32646;50.958;6.258;2023-03-05T05:26:59;3.00;99.90
46898;DHT22;32646;50.958;6.258;2023-03-05T05:29:26;3.00;99.90
46898;DHT22;32646;50.958;6.258;2023-03-05T05:31:52;2.90;99.90
46898;DHT22;32646;50.958;6.258;2023-03-05T05:34:19;2.90;99.90
46898;DHT22;32646;50.958;6.258;2023-03-05T05:36:45;3.00;99.90
46898;DHT22;32646;50.958;6.258;2023-03-05T05:39:12;3.00;99.90
46898;DHT22;32646;50.958;6.258;2023-03-05T05:41:39;2.90;99.90
46898;DHT22;32646;50.958;6.258;2023-03-05T05:44:05;3.00;99.90
46898;DHT22;32646;50.958;6.258;2023-03-05T05:46:31;3.00;99.90
46898;DHT22;32646;50.958;6.258;2023-03-05T05:48:58;2.90;99.90
46898;DHT22;32646;50.958;6.258;2023-03-05T05:51:25;2.90;99.90
46898;DHT22;32646;50.958;6.258;2023-03-05T05:53:52;2.90;99.90
46898;DHT22;32646;50.958;6.258;2023-03-05T05:56:18;2.90;99.90
46898;DHT22;32646;50.958;6.258;2023-03-05T05:58:46;2.90;99.90
46898;DHT22;32646;50.958;6.258;2023-03-05T06:01:22;2.80;99.90
46898;DHT22;32646;50.958;6.258;2023-03-05T06:03:48;2.70;99.90
46898;DHT22;32646;50.958;6.258;2023-03-05T06:06:17;2.80;99.90
46898;DHT22;32646;50.958;6.258;2023-03-05T06:08:44;2.70;99.90
46898;DHT22;32646;50.958;6.258;2023-03-05T06:11:11;2.70;99.90
46898;DHT22;32646;50.958;6.258;2023-03-05T06:13:37;2.70;99.90
46898;DHT22;32646;50.958;6.258;2023-03-05T06:16:07;2.60;99.90
46898;DHT22;32646;50.958;6.258;2023-03-05T06:18:34;2.70;99.90
46898;DHT22;32646;50.958;6.258;2023-03-05T06:21:03;2.80;99.90
46898;DHT22;32646;50.958;6.258;2023-03-05T06:23:31;2.80;99.90
46898;DHT22;32646;50.958;6.258;2023-03-05T06:25:59;2.80;99.90
46898;DHT22;32646;50.958;6.258;2023-03-05T06:28:27;2.80;99.90
46898;DHT22;32646;50.958;6.258;2023-03-05T06:31:21;2.90;99.90
46898;DHT22;32646;50.958;6.258;2023-03-05T06:33:49;2.90;99.90
46898;DHT22;32646;50.958;6.258;2023-03-05T06:36:16;2.80;99.90
46898;DHT22;32646;50.958;6.258;2023-03-05T06:38:44;2.80;99.90
46898;DHT22;32646;50.958;6.258;2023-03-05T06:41:13;2.90;99.90
46898;DHT22;32646;50.958;6.258;2023-03-05T06:43:42;3.00;99.90
46898;DHT22;32646;50.958;6.258;2023-03-05T06:46:15;3.10;99.90
46898;DHT22;32646;50.958;6.258;2023-03-05T06:48:43;3.10;99.90
46898;DHT22;32646;50.958;6.258;2023-03-05T06:51:15;3.20;99.90
46898;DHT22;32646;50.958;6.258;2023-03-05T06:53:42;3.20;99.90
46898;DHT22;32646;50.958;6.258;2023-03-05T06:56:09;3.10;99.90
46898;DHT22;32646;50.958;6.258;2023-03-05T06:58:36;3.20;99.90
46898;DHT22;32646;50.958;6.258;2023-03-05T07:01:05;3.20;99.90
46898;DHT22;32646;50.958;6.258;2023-03-05T07:03:33;3.20;99.90
46898;DHT22;32646;50.958;6.258;2023-03-05T07:06:07;3.30;99.90
46898;DHT22;32646;50.958;6.258;2023-03-05T07:08:34;3.40;99.90
46898;DHT22;32646;50.958;6.258;2023-03-05T07:11:01;3.30;99.90
46898;DHT22;32646;50.958;6.258;2023-03-05T07:13:28;3.40;99.90
46898;DHT22;32646;50.958;6.258;2023-03-05T07:15:55;3.50;99.90
46898;DHT22;32646;50.958;6.258;2023-03-05T07:18:22;3.50;99.90
46898;DHT22;32646;50.958;6.258;2023-03-05T07:20:49;3.50;99.90
46898;DHT22;32646;50.958;6.258;2023-03-05T07:23:15;3.50;99.90
46898;DHT22;32646;50.958;6.258;2023-03-05T07:25:42;3.70;99.90
46898;DHT22;32646;50.958;6.258;2023-03-05T07:28:08;3.70;99.90
46898;DHT22;32646;50.958;6.258;2023-03-05T07:30:35;3.70;99.90
46898;DHT22;32646;50.958;6.258;2023-03-05T07:33:02;3.80;99.90
46898;DHT22;32646;50.958;6.258;2023-03-05T07:35:28;3.90;99.90
46898;DHT22;32646;50.958;6.258;2023-03-05T07:37:55;4.00;99.90
46898;DHT22;32646;50.958;6.258;2023-03-05T07:40:21;4.00;99.90
46898;DHT22;32646;50.958;6.258;2023-03-05T07:42:48;4.00;99.90
46898;DHT22;32646;50.958;6.258;2023-03-05T07:45:15;3.90;99.90
46898;DHT22;32646;50.958;6.258;2023-03-05T07:47:41;3.90;99.90
46898;DHT22;32646;50.958;6.258;2023-03-05T07:50:11;4.00;99.90
46898;DHT22;32646;50.958;6.258;2023-03-05T07:52:38;4.00;99.90
46898;DHT22;32646;50.958;6.258;2023-03-05T07:55:04;4.00;99.90
46898;DHT22;32646;50.958;6.258;2023-03-05T07:57:31;4.00;99.90
46898;DHT22;32646;50.958;6.258;2023-03-05T07:59:57;4.00;99.90
46898;DHT22;32646;50.958;6.258;2023-03-05T08:02:24;4.00;99.90
46898;DHT22;32646;50.958;6.258;2023-03-05T08:04:51;4.00;99.90
46898;DHT22;32646;50.958;6.258;2023-03-05T08:07:17;4.00;99.90
46898;DHT22;32646;50.958;6.258;2023-03-05T08:09:44;4.20;99.90
46898;DHT22;32646;50.958;6.258;2023-03-05T08:12:10;4.20;99.90
46898;DHT22;32646;50.958;6.258;2023-03-05T08:14:37;4.10;99.90
46898;DHT22;32646;50.958;6.258;2023-03-05T08:17:04;4.20;99.90
46898;DHT22;32646;50.958;6.258;2023-03-05T08:19:32;4.20;99.90
46898;DHT22;32646;50.958;6.258;2023-03-05T08:21:58;4.30;99.90
46898;DHT22;32646;50.958;6.258;2023-03-05T08:24:25;4.20;99.90
46898;DHT22;32646;50.958;6.258;2023-03-05T08:26:52;4.30;99.90
46898;DHT22;32646;50.958;6.258;2023-03-05T08:29:19;4.30;99.90
46898;DHT22;32646;50.958;6.258;2023-03-05T08:31:46;4.20;99.90
46898;DHT22;32646;50.958;6.258;2023-03-05T08:34:12;4.30;99.90
46898;DHT22;32646;50.958;6.258;2023-03-05T08:36:39;4.20;99.90
46898;DHT22;32646;50.958;6.258;2023-03-05T08:39:05;4.30;99.90
46898;DHT22;32646;50.958;6.258;2023-03-05T08:41:32;4.30;99.90
46898;DHT22;32646;50.958;6.258;2023-03-05T08:43:59;4.30;99.90
46898;DHT22;32646;50.958;6.258;2023-03-05T08:46:25;4.30;99.90
46898;DHT22;32646;50.958;6.258;2023-03-05T08:48:52;4.20;99.90
46898;DHT22;32646;50.958;6.258;2023-03-05T08:51:23;4.20;99.90
46898;DHT22;32646;50.958;6.258;2023-03-05T08:53:50;4.30;99.90
46898;DHT22;32646;50.958;6.258;2023-03-05T08:56:17;4.40;99.90
46898;DHT22;32646;50.958;6.258;2023-03-05T08:58:44;4.50;99.90
46898;DHT22;32646;50.958;6.258;2023-03-05T09:01:11;4.50;99.90
46898;DHT22;32646;50.958;6.258;2023-03-05T09:03:38;4.60;99.90
46898;DHT22;32646;50.958;6.258;2023-03-05T09:06:07;4.60;99.90
46898;DHT22;32646;50.958;6.258;2023-03-05T09:08:35;4.80;99.90
46898;DHT22;32646;50.958;6.258;2023-03-05T09:11:04;4.70;99.90
46898;DHT22;32646;50.958;6.258;2023-03-05T09:13:31;4.60;99.90
46898;DHT22;32646;50.958;6.258;2023-03-05T09:16:00;4.50;99.90
46898;DHT22;32646;50.958;6.258;2023-03-05T09:18:28;4.50;99.90
46898;DHT22;32646;50.958;6.258;2023-03-05T09:20:55;4.70;99.90
46898;DHT22;32646;50.958;6.258;2023-03-05T09:23:22;4.90;99.90
46898;DHT22;32646;50.958;6.258;2023-03-05T09:25:49;4.70;99.90
46898;DHT22;32646;50.958;6.258;2023-03-05T09:28:15;4.60;99.90
46898;DHT22;32646;50.958;6.258;2023-03-05T09:30:42;4.60;99.90
46898;DHT22;32646;50.958;6.258;2023-03-05T09:33:14;4.40;99.90
46898;DHT22;32646;50.958;6.258;2023-03-05T09:36:19;4.20;99.90
46898;DHT22;32646;50.958;6.258;2023-03-05T09:38:47;3.90;99.90
46898;DHT22;32646;50.958;6.258;2023-03-05T09:46:53;3.30;99.90
46898;DHT22;32646;50.958;6.258;2023-03-05T09:52:27;3.30;99.90
46898;DHT22;32646;50.958;6.258;2023-03-05T09:54:57;3.50;99.90
46898;DHT22;32646;50.958;6.258;2023-03-05T09:57:37;3.60;99.90
46898;DHT22;32646;50.958;6.258;2023-03-05T10:00:06;3.70;99.90
46898;DHT22;32646;50.958;6.258;2023-03-05T10:02:36;3.80;99.90
46898;DHT22;32646;50.958;6.258;2023-03-05T10:08:08;4.10;99.90
46898;DHT22;32646;50.958;6.258;2023-03-05T10:10:40;4.30;99.90
46898;DHT22;32646;50.958;6.258;2023-03-05T10:13:21;4.70;99.90
46898;DHT22;32646;50.958;6.258;2023-03-05T10:16:18;5.10;99.90
46898;DHT22;32646;50.958;6.258;2023-03-05T10:21:26;4.90;99.90
46898;DHT22;32646;50.958;6.258;2023-03-05T10:26:57;4.80;99.90
46898;DHT22;32646;50.958;6.258;2023-03-05T10:37:27;4.30;99.90
46898;DHT22;32646;50.958;6.258;2023-03-05T10:43:06;4.20;99.90
46898;DHT22;32646;50.958;6.258;2023-03-05T10:45:40;4.30;99.90
46898;DHT22;32646;50.958;6.258;2023-03-05T10:48:34;4.40;99.90
46898;DHT22;32646;50.958;6.258;2023-03-05T10:51:22;4.40;99.90
46898;DHT22;32646;50.958;6.258;2023-03-05T10:56:20;4.50;99.90
46898;DHT22;32646;50.958;6.258;2023-03-05T10:58:47;4.60;99.90
46898;DHT22;32646;50.958;6.258;2023-03-05T11:04:04;4.90;99.90
46898;DHT22;32646;50.958;6.258;2023-03-05T11:14:38;5.80;99.90
46898;DHT22;32646;50.958;6.258;2023-03-05T11:17:41;6.00;99.90
46898;DHT22;32646;50.958;6.258;2023-03-05T11:23:28;5.90;99.90
46898;DHT22;32646;50.958;6.258;2023-03-05T11:26:21;5.90;99.90
46898;DHT22;32646;50.958;6.258;2023-03-05T11:34:00;5.90;99.90
46898;DHT22;32646;50.958;6.258;2023-03-05T11:38:56;5.90;99.90
46898;DHT22;32646;50.958;6.258;2023-03-05T11:41:30;5.80;99.90
46898;DHT22;32646;50.958;6.258;2023-03-05T11:43:59;6.00;99.90
46898;DHT22;32646;50.958;6.258;2023-03-05T11:46:27;6.10;99.90
46898;DHT22;32646;50.958;6.258;2023-03-05T11:48:54;6.10;99.90
46898;DHT22;32646;50.958;6.258;2023-03-05T11:51:35;6.30;99.90
46898;DHT22;32646;50.958;6.258;2023-03-05T11:54:07;6.30;99.90
46898;DHT22;32646;50.958;6.258;2023-03-05T11:56:36;6.30;99.90
46898;DHT22;32646;50.958;6.258;2023-03-05T11:59:27;6.20;99.90
46898;DHT22;32646;50.958;6.258;2023-03-05T12:01:55;6.40;99.90
46898;DHT22;32646;50.958;6.258;2023-03-05T12:04:23;6.50;99.90
46898;DHT22;32646;50.958;6.258;2023-03-05T12:06:59;6.50;99.90
46898;DHT22;32646;50.958;6.258;2023-03-05T12:21:15;6.20;99.90
46898;DHT22;32646;50.958;6.258;2023-03-05T12:23:22;6.20;99.90
46898;DHT22;32646;50.958;6.258;2023-03-05T12:25:53;6.10;99.90
46898;DHT22;32646;50.958;6.258;2023-03-05T12:33:41;6.00;99.90
46898;DHT22;32646;50.958;6.258;2023-03-05T12:38:51;6.00;99.90
46898;DHT22;32646;50.958;6.258;2023-03-05T12:46:30;6.00;99.90
46898;DHT22;32646;50.958;6.258;2023-03-05T12:48:58;6.00;99.90
46898;DHT22;32646;50.958;6.258;2023-03-05T12:51:33;6.00;99.90
46898;DHT22;32646;50.958;6.258;2023-03-05T12:56:46;6.00;99.90
46898;DHT22;32646;50.958;6.258;2023-03-05T12:59:15;5.90;99.90
46898;DHT22;32646;50.958;6.258;2023-03-05T13:02:03;5.90;99.90
46898;DHT22;32646;50.958;6.258;2023-03-05T13:04:44;5.80;99.90
46898;DHT22;32646;50.958;6.258;2023-03-05T13:07:14;5.70;99.90
46898;DHT22;32646;50.958;6.258;2023-03-05T13:09:51;5.60;99.90
46898;DHT22;32646;50.958;6.258;2023-03-05T13:12:18;5.60;99.90
46898;DHT22;32646;50.958;6.258;2023-03-05T13:14:47;5.60;99.90
46898;DHT22;32646;50.958;6.258;2023-03-05T13:19:57;5.40;99.90
46898;DHT22;32646;50.958;6.258;2023-03-05T13:22:24;5.40;99.90
46898;DHT22;32646;50.958;6.258;2023-03-05T13:27:31;5.10;99.90
46898;DHT22;32646;50.958;6.258;2023-03-05T13:29:58;5.10;99.90
46898;DHT22;32646;50.958;6.258;2023-03-05T13:32:27;5.10;99.90
46898;DHT22;32646;50.958;6.258;2023-03-05T13:34:57;5.10;99.90
46898;DHT22;32646;50.958;6.258;2023-03-05T13:37:26;5.10;99.90
46898;DHT22;32646;50.958;6.258;2023-03-05T13:40:01;5.10;99.90
46898;DHT22;32646;50.958;6.258;2023-03-05T13:42:30;5.20;99.90
46898;DHT22;32646;50.958;6.258;2023-03-05T13:45:00;5.30;99.90
46898;DHT22;32646;50.958;6.258;2023-03-05T13:47:29;5.30;99.90
46898;DHT22;32646;50.958;6.258;2023-03-05T13:49:58;5.30;99.90
46898;DHT22;32646;50.958;6.258;2023-03-05T13:52:29;5.20;99.90
46898;DHT22;32646;50.958;6.258;2023-03-05T13:54:58;5.40;99.90
46898;DHT22;32646;50.958;6.258;2023-03-05T13:57:40;5.40;99.90
46898;DHT22;32646;50.958;6.258;2023-03-05T14:00:35;5.50;99.90
46898;DHT22;32646;50.958;6.258;2023-03-05T14:03:18;5.50;99.90
46898;DHT22;32646;50.958;6.258;2023-03-05T14:05:47;5.40;99.90
46898;DHT22;32646;50.958;6.258;2023-03-05T14:08:22;5.40;99.90
46898;DHT22;32646;50.958;6.258;2023-03-05T14:10:50;5.40;99.90
46898;DHT22;32646;50.958;6.258;2023-03-05T14:13:20;5.30;99.90
46898;DHT22;32646;50.958;6.258;2023-03-05T14:16:10;5.30;99.90
46898;DHT22;32646;50.958;6.258;2023-03-05T14:18:39;5.30;99.90
46898;DHT22;32646;50.958;6.258;2023-03-05T14:21:17;5.40;99.90
46898;DHT22;32646;50.958;6.258;2023-03-05T14:23:48;5.40;99.90
46898;DHT22;32646;50.958;6.258;2023-03-05T14:26:27;5.40;99.90
46898;DHT22;32646;50.958;6.258;2023-03-05T14:29:03;5.40;99.90
46898;DHT22;32646;50.958;6.258;2023-03-05T14:32:02;5.30;99.90
46898;DHT22;32646;50.958;6.258;2023-03-05T14:34:46;5.20;99.90
46898;DHT22;32646;50.958;6.258;2023-03-05T14:37:21;5.20;99.90
46898;DHT22;32646;50.958;6.258;2023-03-05T14:44:57;5.10;99.90
46898;DHT22;32646;50.958;6.258;2023-03-05T14:47:25;5.00;99.90
46898;DHT22;32646;50.958;6.258;2023-03-05T14:49:52;5.00;99.90
46898;DHT22;32646;50.958;6.258;2023-03-05T14:52:21;4.90;99.90
46898;DHT22;32646;50.958;6.258;2023-03-05T14:55:22;4.90;99.90
46898;DHT22;32646;50.958;6.258;2023-03-05T14:57:54;4.80;99.90
46898;DHT22;32646;50.958;6.258;2023-03-05T15:00:29;4.80;99.90
46898;DHT22;32646;50.958;6.258;2023-03-05T15:02:56;4.70;99.90
46898;DHT22;32646;50.958;6.258;2023-03-05T15:05:28;4.60;99.90
46898;DHT22;32646;50.958;6.258;2023-03-05T15:07:58;4.50;99.90
46898;DHT22;32646;50.958;6.258;2023-03-05T15:10:37;4.50;99.90
46898;DHT22;32646;50.958;6.258;2023-03-05T15:13:19;4.50;99.90
46898;DHT22;32646;50.958;6.258;2023-03-05T15:15:47;4.40;99.90
46898;DHT22;32646;50.958;6.258;2023-03-05T15:18:17;4.40;99.90
46898;DHT22;32646;50.958;6.258;2023-03-05T15:20:44;4.30;99.90
46898;DHT22;32646;50.958;6.258;2023-03-05T15:23:11;4.40;99.90
46898;DHT22;32646;50.958;6.258;2023-03-05T15:25:40;4.30;99.90
46898;DHT22;32646;50.958;6.258;2023-03-05T15:28:07;4.20;99.90
46898;DHT22;32646;50.958;6.258;2023-03-05T15:30:40;4.30;99.90
46898;DHT22;32646;50.958;6.258;2023-03-05T15:33:09;4.40;99.90
46898;DHT22;32646;50.958;6.258;2023-03-05T15:35:37;4.40;99.90
46898;DHT22;32646;50.958;6.258;2023-03-05T15:38:04;4.40;99.90
46898;DHT22;32646;50.958;6.258;2023-03-05T15:40:33;4.50;99.90
46898;DHT22;32646;50.958;6.258;2023-03-05T15:43:00;4.50;99.90
46898;DHT22;32646;50.958;6.258;2023-03-05T15:45:27;4.60;99.90
46898;DHT22;32646;50.958;6.258;2023-03-05T15:47:54;4.70;99.90
46898;DHT22;32646;50.958;6.258;2023-03-05T15:50:21;4.80;99.90
46898;DHT22;32646;50.958;6.258;2023-03-05T15:52:48;4.70;99.90
46898;DHT22;32646;50.958;6.258;2023-03-05T15:55:15;4.60;99.90
46898;DHT22;32646;50.958;6.258;2023-03-05T15:57:44;4.70;99.90
46898;DHT22;32646;50.958;6.258;2023-03-05T16:00:12;4.70;99.90
46898;DHT22;32646;50.958;6.258;2023-03-05T16:02:39;4.60;99.90
46898;DHT22;32646;50.958;6.258;2023-03-05T16:05:07;4.70;99.90
46898;DHT22;32646;50.958;6.258;2023-03-05T16:07:36;4.60;99.90
46898;DHT22;32646;50.958;6.258;2023-03-05T16:10:04;4.70;99.90
46898;DHT22;32646;50.958;6.258;2023-03-05T16:12:35;4.70;99.90
46898;DHT22;32646;50.958;6.258;2023-03-05T16:15:03;4.60;99.90
46898;DHT22;32646;50.958;6.258;2023-03-05T16:17:30;4.60;99.90
46898;DHT22;32646;50.958;6.258;2023-03-05T16:19:56;4.50;99.90
46898;DHT22;32646;50.958;6.258;2023-03-05T16:22:23;4.50;99.90
46898;DHT22;32646;50.958;6.258;2023-03-05T16:24:55;4.40;99.90
46898;DHT22;32646;50.958;6.258;2023-03-05T16:27:27;4.50;99.90
46898;DHT22;32646;50.958;6.258;2023-03-05T16:29:54;4.50;99.90
46898;DHT22;32646;50.958;6.258;2023-03-05T16:32:21;4.40;99.90
46898;DHT22;32646;50.958;6.258;2023-03-05T16:34:48;4.50;99.90
46898;DHT22;32646;50.958;6.258;2023-03-05T16:37:20;4.50;99.90
46898;DHT22;32646;50.958;6.258;2023-03-05T16:39:47;4.50;99.90
46898;DHT22;32646;50.958;6.258;2023-03-05T16:42:14;4.40;99.90
46898;DHT22;32646;50.958;6.258;2023-03-05T16:44:46;4.40;99.90
46898;DHT22;32646;50.958;6.258;2023-03-05T16:47:23;4.30;99.90
46898;DHT22;32646;50.958;6.258;2023-03-05T16:49:50;4.30;99.90
46898;DHT22;32646;50.958;6.258;2023-03-05T16:52:17;4.30;99.90
46898;DHT22;32646;50.958;6.258;2023-03-05T16:54:54;4.20;99.90
46898;DHT22;32646;50.958;6.258;2023-03-05T16:57:33;4.30;99.90
46898;DHT22;32646;50.958;6.258;2023-03-05T17:00:03;4.30;99.90
46898;DHT22;32646;50.958;6.258;2023-03-05T17:02:30;4.20;99.90
46898;DHT22;32646;50.958;6.258;2023-03-05T17:04:56;4.30;99.90
46898;DHT22;32646;50.958;6.258;2023-03-05T17:07:23;4.10;99.90
46898;DHT22;32646;50.958;6.258;2023-03-05T17:09:56;4.20;99.90
46898;DHT22;32646;50.958;6.258;2023-03-05T17:12:38;4.10;99.90
46898;DHT22;32646;50.958;6.258;2023-03-05T17:15:28;4.10;99.90
46898;DHT22;32646;50.958;6.258;2023-03-05T17:17:55;4.10;99.90
46898;DHT22;32646;50.958;6.258;2023-03-05T17:20:22;4.10;99.90
46898;DHT22;32646;50.958;6.258;2023-03-05T17:22:59;4.10;99.90
46898;DHT22;32646;50.958;6.258;2023-03-05T17:25:27;4.10;99.90
46898;DHT22;32646;50.958;6.258;2023-03-05T17:27:54;4.00;99.90
46898;DHT22;32646;50.958;6.258;2023-03-05T17:30:20;4.00;99.90